Owen, Kentucky
Current Conditions -  °F | °C
As of 3:53 AM on Sunday 26 Oct 2014 (Local Time) from KFFT Reporting Station
Clear Clear  
Wind Chill: 54°   Ceiling: Unl
Heat Index: 54°   Visibility: 10mi
Dew Point: 49°   Wind: 5mph
Humidity: 83%   Direction: 300°WNW
Pressure: 29.97"   Gusts: NA
Location:  38.5364°N, 84.5918°W
Report Text: KFFT 260753Z AUTO 30004KT 10SM CLR 12/09 A2997 RMK AO2 SLP144 T01220094
Loading
Personal Weather Stations






























Interactive Weather Map
Tropical Storm Tracking
New forecast layout! Learn more

10-Day Weather Forecast

Advertisements
Track Severe Weather on mobile